createdAt,value
2023-01-07T00:04:48.854Z,3.08
2023-01-07T00:09:51.941Z,3.06
2023-01-07T00:14:55.144Z,3.03
2023-01-07T00:19:58.261Z,3.00
2023-01-07T00:25:01.330Z,3.02
2023-01-07T00:30:04.913Z,3.07
2023-01-07T00:35:21.990Z,3.19
2023-01-07T00:40:25.655Z,3.23
2023-01-07T00:45:31.679Z,3.25
2023-01-07T00:50:38.336Z,3.28
2023-01-07T00:55:42.087Z,3.43
2023-01-07T01:00:45.787Z,3.62
2023-01-07T01:05:49.431Z,3.69
2023-01-07T01:10:52.636Z,3.59
2023-01-07T01:15:56.389Z,3.55
2023-01-07T01:21:07.194Z,3.58
2023-01-07T01:26:13.842Z,3.64
2023-01-07T01:31:17.209Z,3.70
2023-01-07T01:36:25.945Z,3.73
2023-01-07T01:41:31.788Z,3.73
2023-01-07T01:46:42.237Z,3.79
2023-01-07T01:51:50.463Z,3.86
2023-01-07T01:56:58.610Z,4.02
2023-01-07T02:02:03.119Z,4.12
2023-01-07T02:07:12.075Z,4.17
2023-01-07T02:12:36.645Z,4.09
2023-01-07T02:18:01.992Z,4.03
2023-01-07T02:23:26.368Z,4.08
2023-01-07T02:29:09.102Z,4.19
2023-01-07T02:34:47.692Z,4.26
2023-01-07T02:40:14.133Z,4.31
2023-01-07T02:45:29.415Z,4.27
2023-01-07T02:50:33.660Z,4.32
2023-01-07T02:56:09.126Z,4.40
2023-01-07T03:01:37.982Z,4.51
2023-01-07T03:07:05.934Z,4.60
2023-01-07T03:12:40.107Z,4.57
2023-01-07T03:17:53.834Z,4.46
2023-01-07T03:22:58.723Z,4.37
2023-01-07T03:28:03.076Z,4.34
2023-01-07T03:33:36.273Z,4.48
2023-01-07T03:38:43.498Z,4.36
2023-01-07T03:43:48.190Z,4.31
2023-01-07T03:48:52.417Z,4.24
2023-01-07T03:53:55.739Z,4.30
2023-01-07T03:58:59.985Z,4.32
2023-01-07T04:04:03.692Z,4.38
2023-01-07T04:09:07.374Z,4.38
2023-01-07T04:14:10.816Z,4.35
2023-01-07T04:19:14.008Z,4.38
2023-01-07T04:24:17.315Z,4.47
2023-01-07T04:29:21.070Z,4.49
2023-01-07T04:34:25.339Z,4.45
2023-01-07T04:39:29.164Z,4.36
2023-01-07T04:44:33.203Z,4.35
2023-01-07T04:49:36.649Z,4.30
2023-01-07T04:54:40.505Z,4.29
2023-01-07T04:59:43.960Z,4.28
2023-01-07T05:04:47.374Z,4.17
2023-01-07T05:09:51.786Z,4.09
2023-01-07T05:14:55.608Z,4.12
2023-01-07T05:19:58.899Z,4.22
2023-01-07T05:25:02.368Z,4.17
2023-01-07T05:30:06.378Z,4.13
2023-01-07T05:35:10.296Z,4.12
2023-01-07T05:40:14.319Z,4.13
2023-01-07T05:45:18.725Z,4.22
2023-01-07T05:50:21.872Z,4.35
2023-01-07T05:55:26.012Z,4.29
2023-01-07T06:00:29.157Z,4.27
2023-01-07T06:05:32.684Z,4.25
2023-01-07T06:10:36.045Z,4.36
2023-01-07T06:15:39.395Z,4.43
2023-01-07T06:20:42.643Z,4.44
2023-01-07T06:25:45.736Z,4.41
2023-01-07T06:30:49.283Z,4.39
2023-01-07T06:35:52.716Z,4.42
2023-01-07T06:40:56.003Z,4.52
2023-01-07T06:45:59.219Z,4.68
2023-01-07T06:51:02.426Z,4.75
2023-01-07T06:56:05.907Z,4.76
2023-01-07T07:01:09.737Z,4.76
2023-01-07T07:06:13.055Z,4.80
2023-01-07T07:11:16.205Z,4.84
2023-01-07T07:16:22.664Z,4.87
2023-01-07T07:21:26.083Z,4.89
2023-01-07T07:26:29.597Z,4.86
2023-01-07T07:31:32.825Z,4.89
2023-01-07T07:36:36.274Z,5.04
2023-01-07T07:41:39.393Z,5.20
2023-01-07T07:46:44.862Z,5.33
2023-01-07T07:51:48.138Z,5.36
2023-01-07T07:56:51.228Z,5.41
2023-01-07T08:01:54.503Z,5.47
2023-01-07T08:06:57.707Z,5.52
2023-01-07T08:12:00.837Z,5.57
2023-01-07T08:17:06.102Z,5.66
2023-01-07T08:22:09.452Z,5.75
2023-01-07T08:27:12.592Z,5.90
2023-01-07T08:32:15.952Z,6.03
2023-01-07T08:37:19.084Z,6.09
2023-01-07T08:42:22.203Z,6.14
2023-01-07T08:47:28.009Z,6.20
2023-01-07T08:52:31.120Z,6.35
2023-01-07T08:57:34.269Z,6.41
2023-01-07T09:02:37.484Z,6.33
2023-01-07T09:07:40.899Z,6.24
2023-01-07T09:12:44.129Z,6.22
2023-01-07T09:17:47.374Z,6.23
2023-01-07T09:22:50.601Z,6.32
2023-01-07T09:27:53.817Z,6.44
2023-01-07T09:32:56.978Z,6.53
2023-01-07T09:38:00.180Z,6.52
2023-01-07T09:43:58.639Z,6.55
2023-01-07T09:49:05.206Z,6.67
2023-01-07T09:54:28.770Z,6.85
2023-01-07T09:59:33.061Z,6.90
2023-01-07T10:05:05.075Z,6.91
2023-01-07T10:10:12.683Z,6.82
2023-01-07T10:15:22.915Z,6.79
2023-01-07T10:20:32.169Z,6.85
2023-01-07T10:25:43.115Z,6.90
2023-01-07T10:30:52.083Z,7.00
2023-01-07T10:36:22.981Z,7.12
2023-01-07T10:41:41.096Z,7.23
2023-01-07T10:46:50.264Z,7.31
2023-01-07T10:52:27.043Z,7.42
2023-01-07T10:57:31.959Z,7.45
2023-01-07T11:02:35.199Z,7.46
2023-01-07T11:07:43.728Z,7.48
2023-01-07T11:12:49.637Z,7.49
2023-01-07T11:18:21.565Z,7.62
2023-01-07T11:23:27.871Z,7.77
2023-01-07T11:28:32.929Z,7.87
2023-01-07T11:34:03.142Z,7.89
2023-01-07T11:39:32.340Z,7.88
2023-01-07T11:44:35.492Z,7.87
2023-01-07T11:49:44.540Z,7.90
2023-01-07T11:54:53.826Z,8.01
2023-01-07T12:00:16.515Z,8.11
2023-01-07T12:05:24.374Z,8.04
2023-01-07T12:10:38.997Z,8.09
2023-01-07T12:16:01.926Z,8.18
2023-01-07T12:21:14.355Z,8.32
2023-01-07T12:26:22.895Z,8.36
2023-01-07T12:31:41.985Z,8.28
2023-01-07T12:37:27.492Z,8.20
2023-01-07T12:42:35.242Z,8.19
2023-01-07T12:47:46.634Z,8.25
2023-01-07T12:53:12.251Z,8.35
2023-01-07T12:58:45.079Z,8.38
2023-01-07T13:04:13.347Z,8.27
2023-01-07T13:09:59.180Z,8.05
2023-01-07T13:15:10.497Z,7.92
2023-01-07T13:20:16.748Z,7.80
2023-01-07T13:25:33.198Z,7.67
2023-01-07T13:31:10.259Z,7.52
2023-01-07T13:36:25.567Z,7.40
2023-01-07T13:41:48.546Z,7.33
2023-01-07T13:46:52.557Z,7.24
2023-01-07T13:52:12.551Z,7.12
2023-01-07T13:57:40.261Z,7.01
2023-01-07T14:03:28.279Z,6.89
2023-01-07T14:08:31.766Z,6.78
2023-01-07T14:14:22.218Z,6.75
2023-01-07T14:19:25.273Z,6.71
2023-01-07T14:24:46.372Z,6.66
2023-01-07T14:29:54.319Z,6.61
2023-01-07T14:35:08.268Z,6.59
2023-01-07T14:40:34.889Z,6.61
2023-01-07T14:45:40.932Z,6.70
2023-01-07T14:51:22.403Z,6.73
2023-01-07T14:56:42.054Z,6.72
2023-01-07T15:02:11.632Z,6.62
2023-01-07T15:07:20.872Z,6.62
2023-01-07T15:12:48.160Z,6.69
2023-01-07T15:17:51.319Z,6.85
2023-01-07T15:23:09.508Z,6.96
2023-01-07T15:28:37.310Z,6.96
2023-01-07T15:34:02.027Z,6.89
2023-01-07T15:39:05.365Z,6.81
2023-01-07T15:44:22.639Z,6.84
2023-01-07T15:49:28.139Z,6.85
2023-01-07T15:54:31.320Z,6.90
2023-01-07T15:59:39.080Z,6.83
2023-01-07T16:04:44.448Z,6.71
2023-01-07T16:09:47.992Z,6.66
2023-01-07T16:14:51.169Z,6.76
2023-01-07T16:20:21.955Z,6.82
2023-01-07T16:25:33.256Z,6.72
2023-01-07T16:30:41.193Z,6.64
2023-01-07T16:35:47.018Z,6.63
2023-01-07T16:40:50.999Z,6.65
2023-01-07T16:46:23.986Z,6.67
2023-01-07T16:51:46.629Z,6.67
2023-01-07T16:56:55.485Z,6.64
2023-01-07T17:02:03.143Z,6.65
2023-01-07T17:07:16.663Z,6.67
2023-01-07T17:12:35.947Z,6.63
2023-01-07T17:17:39.146Z,6.57
2023-01-07T17:22:42.793Z,6.57
2023-01-07T17:27:54.482Z,6.61
2023-01-07T17:32:57.796Z,6.65
2023-01-07T17:38:00.946Z,6.66
2023-01-07T17:43:23.825Z,6.62
2023-01-07T17:48:28.063Z,6.64
2023-01-07T17:53:48.241Z,6.66
2023-01-07T17:58:53.975Z,6.67
2023-01-07T18:03:58.914Z,6.65
2023-01-07T18:09:04.999Z,6.56
2023-01-07T18:14:10.009Z,6.51
2023-01-07T18:19:15.113Z,6.48
2023-01-07T18:24:20.886Z,6.49
2023-01-07T18:29:24.099Z,6.53
2023-01-07T18:34:27.312Z,6.56
2023-01-07T18:39:30.511Z,6.54
2023-01-07T18:44:33.709Z,6.53
2023-01-07T18:49:36.912Z,6.53
2023-01-07T18:54:41.436Z,6.54
2023-01-07T18:59:44.653Z,6.55
2023-01-07T19:04:48.781Z,6.50
2023-01-07T19:09:52.000Z,6.50
2023-01-07T19:14:55.369Z,6.48
2023-01-07T19:19:58.471Z,6.50
2023-01-07T19:25:01.751Z,6.53
2023-01-07T19:30:05.967Z,6.47
2023-01-07T19:35:10.094Z,6.45
2023-01-07T19:40:13.564Z,6.43
2023-01-07T19:45:16.736Z,6.45
2023-01-07T19:50:19.883Z,6.47
2023-01-07T19:55:24.517Z,6.46
2023-01-07T20:00:27.704Z,6.39
2023-01-07T20:05:30.822Z,6.33
2023-01-07T20:10:34.681Z,6.27
2023-01-07T20:15:37.893Z,6.23
2023-01-07T20:20:41.099Z,6.25
2023-01-07T20:25:44.228Z,6.27
2023-01-07T20:30:48.336Z,6.23
2023-01-07T20:36:02.009Z,6.19
2023-01-07T20:41:07.674Z,6.19
2023-01-07T20:46:11.383Z,6.28
2023-01-07T20:51:15.518Z,6.35
2023-01-07T20:56:21.898Z,6.35
2023-01-07T21:01:25.356Z,6.33
2023-01-07T21:06:28.945Z,6.30
2023-01-07T21:11:32.266Z,6.34
2023-01-07T21:16:36.684Z,6.42
2023-01-07T21:21:39.816Z,6.46
2023-01-07T21:26:43.377Z,6.45
2023-01-07T21:31:47.087Z,6.37
2023-01-07T21:36:50.274Z,6.33
2023-01-07T21:41:53.533Z,6.34
2023-01-07T21:46:56.662Z,6.37
2023-01-07T21:51:59.837Z,6.39
2023-01-07T21:57:03.108Z,6.39
2023-01-07T22:02:06.483Z,6.36
2023-01-07T22:07:15.064Z,6.35
2023-01-07T22:12:18.207Z,6.31
2023-01-07T22:17:21.299Z,6.26
2023-01-07T22:22:24.428Z,6.24
2023-01-07T22:27:27.564Z,6.28
2023-01-07T22:32:30.696Z,6.34
2023-01-07T22:37:35.148Z,6.35
2023-01-07T22:42:46.995Z,6.32
2023-01-07T22:47:51.122Z,6.27
2023-01-07T22:52:54.625Z,6.24
2023-01-07T22:57:59.656Z,6.25
2023-01-07T23:03:02.883Z,6.30
2023-01-07T23:08:06.927Z,6.32
2023-01-07T23:13:10.743Z,6.32
2023-01-07T23:18:13.969Z,6.26
2023-01-07T23:23:17.340Z,6.25
2023-01-07T23:28:20.564Z,6.27
2023-01-07T23:33:23.624Z,6.33
2023-01-07T23:38:26.789Z,6.35
2023-01-07T23:43:30.316Z,6.28
2023-01-07T23:48:34.825Z,6.18
2023-01-07T23:53:38.551Z,6.13
2023-01-07T23:58:41.641Z,6.15
